Карточка аэропорта URSS

Внимание!
Информация на этой странице в стадии наполнения.
Если вы не увидели какой-то информации, или заметили неточность - пожалуйста сообщите нам!
Спасибо!
Команда RU-STAFF
Название аэропортаСочи
Название аэропорта (англ.)Sochi
Превышение89 ft. (27.1 m.)
Координаты43°26.634', 39°56.55'
Высота перехода13000 ft
Эшелон переходаFL140 (QNH >= 1013); FL150 (QNH 977-1012); FL160 (QNH < 977)
Коды ответчика1060-1077
Зона ОрВДРостов-на-Дону РПИ (URRV)
Данные METARURSS 070330Z 03005MPS 5000 -SHRA OVC025CB 03/02 Q1004 WS ALL RWY R02/290052 R06/290060 NOSIG RMK R06/05004G07MPS MT OBSC QFE751
Проноз погоды (TAF)URSS 070155Z 0703/0803 03007G12MPS 6000 -SHRA SCT016 BKN020CB OVC100 TEMPO 0703/0706 VRB09G14MPS 1500 TSRA BKN006 BKN020CB OVC100 BECMG 0706/0707 14008G13MPS TEMPO 0707/0718 VRB07G17MPS 1500 TSRA BKN006 BKN020CB OVC100 TEMPO 0718/0803 VRB07G13MPS 1000 TSRAGS BKN006 BKN020CB OVC100
NOTAMshow/hide NOTAM
AWOS   TABLE

Информация о ВПП

ВПП Длина ВПП (м.) Покрытие Курс ВПП Частота ILS
062890Цементобетон58111.1
242890Цементобетон238 
022500Цементобетон22110.5
202500Цементобетон202 

Диспетчерские позиции

Позывной Наименование органа УВД Частота
URSS_GNDСочи-Руление119.000
URSS_FM1119.000
URSS_R_APPСочи-Круг119.700
URSS_TWRСочи-Старт121.200
URSS_APPСочи-Подход124.600
URSS_DELСочи-Деливери132.700



Спутниковое изображение